.
WxDataArchive / Data Records for 2016-06-06
2016-06-05 June 2016 2016-06-07

Data Records for Monday, 06 June 2016

Time	Temp	Chill	HIndex	Humid	Dewpt	 Wind 	HiWind	WindDir	Rain 	Barom
-----	----	-----	------	-----	-----	------	------	-------	-----	-----
00:00	67.3	67.3	67.3	62	53.8	0	1	292	0.00	29.640 
00:05	67.6	67.6	67.6	61	53.7	0	1	292	0.00	29.640 
00:10	67.9	67.9	67.9	60	53.5	0	1	292	0.00	29.640 
00:15	68.1	68.1	68.1	60	53.7	0	1	292	0.00	29.642 
00:20	68.3	68.3	68.3	59	53.4	0	1	292	0.00	29.642 
00:25	68.6	68.6	68.6	58	53.2	0	3	292	0.00	29.642 
00:30	68.9	68.9	68.9	57	53.0	0	2	292	0.00	29.653 
00:35	69.1	69.1	69.1	58	53.7	0	1	292	0.00	29.653 
00:40	68.9	68.9	68.9	57	53.0	0	1	292	0.00	29.653 
00:45	68.8	68.8	68.8	58	53.4	1	3	292	0.00	29.671 
00:50	68.6	68.6	68.6	59	53.7	1	4	292	0.00	29.671 
00:55	68.4	68.4	68.4	59	53.5	1	4	292	0.00	29.671 
01:00	68.3	68.3	68.3	59	53.4	1	4	292	0.00	29.675 
01:05	68.3	68.3	68.3	60	53.9	2	6	292	0.00	29.675 
01:10	67.9	67.9	67.9	61	53.9	2	4	292	0.00	29.675 
01:15	67.8	67.8	67.8	62	54.3	1	3	292	0.00	29.671 
01:20	67.4	67.4	67.4	63	54.4	0	0	---	0.00	29.671 
01:25	67.3	67.3	67.3	64	54.7	0	0	---	0.00	29.671 
01:30	66.9	66.9	66.9	64	54.3	0	1	292	0.00	29.684 
01:35	66.8	66.8	66.8	65	54.6	0	2	292	0.00	29.684 
01:40	66.6	66.6	66.6	65	54.5	0	1	292	0.00	29.684 
01:45	66.6	66.6	66.6	65	54.5	0	1	292	0.00	29.692 
01:50	66.6	66.6	66.6	65	54.5	1	7	292	0.00	29.692 
01:55	66.8	66.8	66.8	65	54.6	2	5	292	0.00	29.692 
02:00	66.8	66.8	66.8	65	54.6	2	6	292	0.00	29.691 
02:05	66.8	66.8	66.8	65	54.6	2	6	292	0.00	29.691 
02:10	66.6	66.6	66.6	66	54.9	1	4	315	0.00	29.691 
02:15	66.6	66.6	66.6	66	54.9	1	5	270	0.00	29.687 
02:20	66.4	66.4	66.4	67	55.1	1	3	270	0.00	29.687 
02:25	66.3	66.3	66.3	67	55.0	2	3	270	0.00	29.687 
02:30	66.3	66.3	66.3	68	55.4	1	3	270	0.00	29.685 
02:35	66.1	66.1	66.1	68	55.2	1	3	270	0.00	29.685 
02:40	66.0	66.0	66.0	69	55.5	0	3	270	0.00	29.685 
02:45	66.0	66.0	66.0	70	55.9	0	1	270	0.00	29.675 
02:50	65.8	65.8	65.8	71	56.1	0	1	270	0.00	29.675 
02:55	65.6	65.6	65.6	72	56.3	0	1	270	0.00	29.675 
03:00	65.5	65.5	65.5	72	56.2	0	1	270	0.00	29.677 
03:05	65.3	65.3	65.3	72	56.0	0	0	---	0.00	29.677 
03:10	65.3	65.3	65.3	73	56.4	0	1	270	0.00	29.677 
03:15	65.3	65.3	65.3	73	56.4	0	0	---	0.00	29.673 
03:20	65.2	65.2	65.2	73	56.3	0	1	270	0.00	29.673 
03:25	65.2	65.2	65.2	73	56.3	0	0	---	0.00	29.673 
03:30	65.2	65.2	65.2	73	56.3	0	0	---	0.00	29.670 
03:35	65.2	65.2	65.2	73	56.3	0	0	---	0.00	29.670 
03:40	65.2	65.2	65.2	73	56.3	0	0	---	0.00	29.670 
03:45	65.3	65.3	65.3	73	56.4	0	0	---	0.00	29.672 
03:50	65.3	65.3	65.3	74	56.8	0	0	---	0.00	29.672 
03:55	65.3	65.3	65.3	74	56.8	0	1	270	0.00	29.672 
04:00	65.3	65.3	65.3	74	56.8	0	1	270	0.00	29.672 
04:05	65.3	65.3	65.3	74	56.8	0	0	---	0.00	29.672 
04:10	65.3	65.3	65.3	74	56.8	0	1	270	0.00	29.672 
04:15	65.3	65.3	65.3	74	56.8	0	0	---	0.00	29.662 
04:20	65.3	65.3	65.3	74	56.8	0	1	270	0.00	29.662 
04:25	65.3	65.3	65.3	74	56.8	0	1	270	0.00	29.662 
04:30	65.5	65.5	65.5	74	57.0	0	1	270	0.00	29.661 
04:35	65.3	65.3	65.3	74	56.8	0	1	270	0.00	29.661 
04:40	65.3	65.3	65.3	74	56.8	0	0	---	0.00	29.661 
04:45	65.3	65.3	65.3	74	56.8	0	0	---	0.00	29.658 
04:50	65.2	65.2	65.2	75	57.1	0	0	---	0.00	29.658 
04:55	65.2	65.2	65.2	75	57.1	0	0	---	0.00	29.658 
05:00	65.2	65.2	65.2	75	57.1	0	0	---	0.00	29.661 
05:05	65.2	65.2	65.2	75	57.1	0	1	270	0.00	29.661 
05:10	65.2	65.2	65.2	75	57.1	0	0	---	0.00	29.661 
05:15	65.0	65.0	65.0	75	56.9	0	0	---	0.00	29.663 
05:20	65.0	65.0	65.0	75	56.9	0	0	---	0.00	29.663 
05:25	64.8	64.8	64.8	75	56.7	0	0	---	0.00	29.663 
05:30	64.7	64.7	64.7	75	56.6	0	0	---	0.00	29.664 
05:35	64.3	64.3	64.3	76	56.6	0	0	---	0.00	29.664 
05:40	64.2	64.2	64.2	76	56.5	0	0	---	0.00	29.664 
05:45	64.0	64.0	64.0	76	56.3	0	0	---	0.00	29.671 
05:50	63.9	63.9	63.9	77	56.5	0	0	---	0.00	29.671 
05:55	63.7	63.7	63.7	77	56.3	0	0	---	0.00	29.671 
06:00	63.5	63.5	63.5	77	56.2	0	0	---	0.00	29.669 
06:05	63.4	63.4	63.4	77	56.1	0	0	---	0.00	29.669 
06:10	63.1	63.1	63.1	78	56.1	0	0	---	0.00	29.669 
06:15	62.9	62.9	62.9	78	55.9	0	0	---	0.00	29.670 
06:20	62.7	62.7	62.7	78	55.7	0	0	---	0.00	29.670 
06:25	62.6	62.6	62.6	79	56.0	0	0	---	0.00	29.670 
06:30	62.6	62.6	62.6	80	56.3	0	0	---	0.00	29.669 
06:35	62.4	62.4	62.4	80	56.1	0	1	270	0.00	29.669 
06:40	62.4	62.4	62.4	80	56.1	0	1	270	0.00	29.669 
06:45	62.4	62.4	62.4	81	56.5	0	0	---	0.00	29.672 
06:50	62.4	62.4	62.4	81	56.5	0	1	270	0.00	29.672 
06:55	62.6	62.6	62.6	81	56.7	0	0	---	0.00	29.672 
07:00	62.6	62.6	62.6	81	56.7	0	1	270	0.00	29.673 
07:05	62.7	62.7	62.7	81	56.8	0	1	270	0.00	29.673 
07:10	62.9	62.9	62.9	81	57.0	0	1	270	0.00	29.673 
07:15	63.1	63.1	63.1	81	57.2	0	1	270	0.00	29.673 
07:20	63.2	63.2	63.2	81	57.3	0	1	270	0.00	29.673 
07:25	63.5	63.5	63.5	80	57.2	0	1	270	0.00	29.673 
07:30	64.0	64.0	64.0	79	57.4	0	1	270	0.00	29.673 
07:35	64.5	64.5	64.5	78	57.5	0	1	270	0.00	29.673 
07:40	65.0	65.0	65.0	77	57.6	0	1	270	0.00	29.673 
07:45	65.5	65.5	65.5	75	57.4	0	2	270	0.00	29.671 
07:50	66.0	66.0	66.0	75	57.8	0	2	270	0.00	29.671 
07:55	66.4	66.4	66.4	73	57.5	0	1	270	0.00	29.671 
08:00	66.9	66.9	66.9	72	57.6	0	1	270	0.00	29.670 
08:05	67.4	67.4	67.4	71	57.7	0	2	270	0.00	29.670 
08:10	67.8	67.8	67.8	70	57.6	0	2	270	0.00	29.670 
08:15	68.1	68.1	68.1	69	57.5	0	1	270	0.00	29.672 
08:20	68.3	68.3	68.3	68	57.3	1	3	270	0.00	29.672 
08:25	68.4	68.4	68.4	69	57.8	0	2	270	0.00	29.672 
08:30	68.8	68.8	68.8	69	58.2	0	1	270	0.00	29.672 
08:35	69.1	69.1	69.1	67	57.7	0	2	270	0.00	29.672 
08:40	69.3	69.3	69.3	67	57.9	0	3	270	0.00	29.672 
08:45	69.6	69.6	69.6	65	57.3	0	2	270	0.00	29.670 
08:50	69.6	69.6	69.6	66	57.7	1	3	270	0.00	29.670 
08:55	70.1	70.1	70.1	67	58.6	0	2	225	0.00	29.670 
09:00	70.6	70.6	70.6	65	58.2	0	1	225	0.00	29.669 
09:05	71.1	71.1	71.1	63	57.9	0	3	248	0.00	29.669 
09:10	70.9	70.9	70.9	62	57.2	2	5	292	0.00	29.669 
09:15	70.9	70.9	70.9	64	58.1	0	2	292	0.00	29.673 
09:20	71.1	71.1	71.1	63	57.9	1	4	292	0.00	29.673 
09:25	71.3	71.3	71.3	62	57.6	1	3	292	0.00	29.673 
09:30	71.6	71.6	71.6	62	57.9	1	2	292	0.00	29.672 
09:35	71.6	71.6	71.6	62	57.9	2	3	292	0.00	29.672 
09:40	71.8	71.8	71.8	62	58.1	1	4	292	0.00	29.672 
09:45	72.1	72.1	72.1	61	57.9	1	5	292	0.00	29.672 
09:50	72.0	72.0	72.0	61	57.8	2	5	292	0.00	29.672 
09:55	71.8	71.8	71.8	61	57.6	2	4	292	0.00	29.672 
10:00	72.0	72.0	72.0	62	58.3	1	3	292	0.00	29.670 
10:05	72.7	72.7	72.7	63	59.4	0	3	292	0.00	29.670 
10:10	73.2	73.2	73.2	60	58.5	1	4	292	0.00	29.670 
10:15	73.9	73.9	73.9	60	59.1	0	2	292	0.00	29.659 
10:20	74.4	74.4	74.4	59	59.1	0	4	90	0.00	29.659 
10:25	74.4	74.4	74.4	57	58.2	1	4	292	0.00	29.659 
10:30	74.4	74.4	74.4	60	59.6	1	4	292	0.00	29.657 
10:35	74.9	74.9	74.9	57	58.6	0	3	292	0.00	29.657 
10:40	75.1	75.1	77.6	56	58.3	1	4	292	0.00	29.657 
10:45	75.1	75.1	77.6	55	57.8	1	4	292	0.00	29.655 
10:50	75.3	75.3	77.7	55	58.0	1	3	68	0.00	29.655 
10:55	75.6	75.6	77.8	55	58.3	0	2	270	0.00	29.655 
11:00	76.0	76.0	78.0	58	60.1	0	2	270	0.00	29.651 
11:05	76.3	76.3	78.3	55	58.9	1	3	292	0.00	29.651 
11:10	76.1	76.1	78.1	54	58.2	1	4	315	0.00	29.651 
11:15	76.3	76.3	78.3	57	59.9	0	3	315	0.00	29.654 
11:20	76.8	76.8	78.6	55	59.4	1	3	45	0.00	29.654 
11:25	76.7	76.7	78.5	54	58.8	0	2	292	0.00	29.654 
11:30	76.7	76.7	78.5	53	58.3	1	3	292	0.00	29.651 
11:35	76.8	76.8	78.6	56	59.9	1	3	292	0.00	29.651 
11:40	77.2	77.2	78.9	59	61.7	1	4	292	0.00	29.651 
11:45	77.7	77.7	79.2	54	59.7	0	2	292	0.00	29.647 
11:50	77.9	77.9	79.2	50	57.7	1	3	292	0.00	29.647 
11:55	77.7	77.7	79.1	51	58.1	1	5	292	0.00	29.647 
12:00	77.9	77.9	79.1	48	56.6	1	3	292	0.00	29.643 
12:05	78.3	78.3	79.5	51	58.7	1	3	292	0.00	29.643 
12:10	78.6	78.6	79.4	46	56.1	2	5	292	0.00	29.643 
12:15	78.8	78.8	79.7	48	57.4	1	4	292	0.00	29.636 
12:20	79.0	79.0	79.4	42	53.9	2	5	292	0.00	29.636 
12:25	79.0	79.0	79.5	43	54.6	1	4	292	0.00	29.636 
12:30	79.2	79.2	79.6	43	54.7	2	4	292	0.00	29.634 
12:35	79.0	79.0	79.6	45	55.8	2	5	292	0.00	29.634 
12:40	79.2	79.2	79.5	41	53.4	0	2	292	0.00	29.634 
12:45	79.4	79.4	79.8	44	55.6	1	4	292	0.00	29.627 
12:50	79.6	79.6	79.7	41	53.8	1	4	292	0.00	29.627 
12:55	79.8	79.8	79.9	41	54.0	1	5	292	0.00	29.627 
13:00	79.9	79.9	79.9	40	53.4	0	2	292	0.00	29.622 
13:05	80.5	80.5	80.6	43	55.9	1	5	292	0.00	29.622 
13:10	80.7	80.7	80.3	39	53.4	2	5	292	0.00	29.622 
13:15	80.3	80.3	80.1	39	53.1	1	5	292	0.00	29.619 
13:20	79.8	79.8	79.7	39	52.6	1	4	292	0.00	29.619 
13:25	79.6	79.6	79.7	41	53.8	2	5	292	0.00	29.619 
13:30	79.9	79.9	79.8	39	52.7	0	3	292	0.00	29.617 
13:35	80.5	80.5	79.9	36	51.1	1	4	292	0.00	29.617 
13:40	80.7	80.7	80.2	38	52.7	1	5	292	0.00	29.617 
13:45	80.7	80.7	80.2	37	52.0	1	4	292	0.00	29.610 
13:50	80.9	80.9	80.1	35	50.7	1	4	292	0.00	29.610 
13:55	81.2	81.2	80.5	37	52.4	0	2	315	0.00	29.610 
14:00	81.6	81.6	80.8	37	52.8	0	3	0	0.00	29.603 
14:05	81.8	81.8	80.9	36	52.2	1	5	292	0.00	29.603 
14:10	81.6	81.6	81.2	41	55.6	0	3	292	0.00	29.603 
14:15	81.6	81.6	80.8	37	52.8	1	3	292	0.00	29.603 
14:20	81.2	81.2	80.5	37	52.4	1	3	292	0.00	29.603 
14:25	81.4	81.4	80.7	37	52.6	0	2	292	0.00	29.603 
14:30	81.8	81.8	81.2	39	54.4	1	3	292	0.00	29.590 
14:35	82.0	82.0	80.8	34	50.8	1	5	248	0.00	29.590 
14:40	81.8	81.8	80.8	35	51.4	1	4	270	0.00	29.590 
14:45	81.6	81.6	80.7	36	52.0	1	4	270	0.00	29.587 
14:50	81.2	81.2	80.3	35	50.9	1	4	270	0.00	29.587 
14:55	80.7	80.7	80.0	35	50.5	0	2	270	0.00	29.587 
15:00	80.3	80.3	79.8	36	50.9	1	4	270	0.00	29.587 
15:05	79.8	79.8	79.5	36	50.4	2	6	292	0.00	29.587 
15:10	79.8	79.8	79.5	36	50.4	2	4	292	0.00	29.587 
15:15	79.8	79.8	79.6	37	51.2	1	2	292	0.00	29.581 
15:20	79.8	79.8	79.5	36	50.4	0	2	292	0.00	29.581 
15:25	79.6	79.6	79.4	37	51.0	0	2	292	0.00	29.581 
15:30	79.2	79.2	79.2	37	50.7	0	2	292	0.00	29.577 
15:35	79.4	79.4	79.4	38	51.6	1	3	0	0.00	29.577 
15:40	80.7	80.7	80.2	38	52.7	1	3	0	0.00	29.577 
15:45	81.6	81.6	80.9	38	53.5	1	3	0	0.00	29.569 
15:50	82.4	82.4	80.9	32	49.5	1	3	292	0.00	29.569 
15:55	82.8	82.8	81.3	33	50.7	0	4	292	0.00	29.569 
16:00	83.4	83.4	81.6	31	49.6	1	5	292	0.00	29.557 
16:05	83.2	83.2	81.5	31	49.4	1	4	292	0.00	29.557 
16:10	83.4	83.4	81.7	32	50.4	1	4	292	0.00	29.557 
16:15	83.4	83.4	81.6	31	49.6	1	5	292	0.00	29.556 
16:20	82.8	82.8	81.2	31	49.0	1	5	292	0.00	29.556 
16:25	82.2	82.2	80.9	33	50.2	1	4	292	0.00	29.556 
16:30	81.8	81.8	80.5	32	49.0	0	2	292	0.00	29.549 
16:35	81.1	81.1	80.0	32	48.4	0	2	292	0.00	29.549 
16:40	80.5	80.5	79.7	33	48.7	1	5	292	0.00	29.549 
16:45	79.9	79.9	79.3	33	48.2	0	2	292	0.00	29.545 
16:50	79.6	79.6	79.4	36	50.3	1	3	292	0.00	29.545 
16:55	78.8	78.8	78.9	36	49.6	1	5	292	0.00	29.545 
17:00	77.9	77.9	78.4	36	48.8	1	5	292	0.00	29.555 
17:05	77.4	77.4	78.3	38	49.8	1	3	292	0.00	29.555 
17:10	77.2	77.2	78.3	39	50.3	1	3	292	0.00	29.555 
17:15	76.8	76.8	78.1	40	50.6	1	4	292	0.00	29.555 
17:20	76.5	76.5	77.9	37	48.3	1	6	292	0.00	29.555 
17:25	76.1	76.1	77.7	37	47.9	3	10	270	0.00	29.555 
17:30	75.3	75.3	77.5	39	48.6	2	7	270	0.00	29.582 
17:35	73.9	73.9	73.9	47	52.4	1	3	270	0.00	29.582 
17:40	71.8	71.8	71.8	52	53.2	0	3	270	0.00	29.582 
17:45	70.4	70.4	70.4	54	52.9	0	1	270	0.00	29.553 
17:50	69.8	69.8	69.8	58	54.3	0	1	270	0.00	29.553 
17:55	69.4	69.4	69.4	59	54.4	0	1	270	0.00	29.553 
18:00	69.3	69.3	69.3	60	54.8	0	1	270	0.00	29.553 
18:05	69.4	69.4	69.4	62	55.8	0	2	270	0.00	29.553 
18:10	69.6	69.6	69.6	60	55.1	0	1	270	0.00	29.553 
18:15	69.8	69.8	69.8	60	55.3	0	1	270	0.00	29.541 
18:20	69.9	69.9	69.9	61	55.8	1	4	270	0.00	29.541 
18:25	69.9	69.9	69.9	60	55.4	2	7	292	0.00	29.541 
18:30	69.9	69.9	69.9	63	56.7	2	5	292	0.00	29.572 
18:35	69.4	69.4	69.4	68	58.4	0	3	292	0.01	29.572 
18:40	69.3	69.3	69.3	70	59.1	0	1	292	0.00	29.572 
18:45	69.1	69.1	69.1	70	58.9	0	1	292	0.00	29.566 
18:50	69.3	69.3	69.3	70	59.1	0	2	292	0.00	29.566 
18:55	69.4	69.4	69.4	70	59.2	0	1	292	0.00	29.566 
19:00	69.6	69.6	69.6	69	59.0	0	1	292	0.00	29.567 
19:05	69.8	69.8	69.8	67	58.3	0	1	292	0.00	29.567 
19:10	70.1	70.1	70.1	66	58.2	0	3	292	0.00	29.567 
19:15	70.4	70.4	70.4	65	58.1	0	1	90	0.00	29.566 
19:20	70.9	70.9	70.9	64	58.1	0	1	90	0.00	29.566 
19:25	71.6	71.6	71.6	62	57.9	0	1	90	0.00	29.566 
19:30	71.8	71.8	71.8	59	56.7	0	1	90	0.00	29.566 
19:35	72.1	72.1	72.1	58	56.5	1	3	292	0.00	29.566 
19:40	72.3	72.3	72.3	57	56.2	0	2	292	0.00	29.566 
19:45	72.3	72.3	72.3	56	55.7	0	1	292	0.00	29.575 
19:50	72.5	72.5	72.5	57	56.4	0	1	292	0.00	29.575 
19:55	72.7	72.7	72.7	57	56.6	0	1	292	0.00	29.575 
20:00	72.7	72.7	72.7	56	56.1	0	1	292	0.00	29.577 
20:05	72.7	72.7	72.7	55	55.6	0	2	292	0.00	29.577 
20:10	72.8	72.8	72.8	55	55.7	0	1	292	0.00	29.577 
20:15	72.8	72.8	72.8	55	55.7	0	1	292	0.00	29.576 
20:20	72.7	72.7	72.7	56	56.1	0	1	292	0.00	29.576 
20:25	72.5	72.5	72.5	56	55.9	0	1	292	0.00	29.576 
20:30	72.3	72.3	72.3	57	56.2	0	0	---	0.00	29.579 
20:35	72.1	72.1	72.1	58	56.5	0	0	---	0.00	29.579 
20:40	71.8	71.8	71.8	58	56.2	0	0	---	0.00	29.579 
20:45	71.5	71.5	71.5	60	56.9	0	0	---	0.00	29.583 
20:50	71.1	71.1	71.1	59	56.0	0	0	---	0.00	29.583 
20:55	70.9	70.9	70.9	59	55.8	0	0	---	0.00	29.583 
21:00	70.9	70.9	70.9	59	55.8	0	1	292	0.00	29.589 
21:05	70.8	70.8	70.8	59	55.7	0	1	292	0.00	29.589 
21:10	70.6	70.6	70.6	60	56.0	0	0	---	0.00	29.589 
21:15	70.4	70.4	70.4	61	56.3	0	0	---	0.00	29.592 
21:20	70.1	70.1	70.1	61	56.0	0	1	292	0.00	29.592 
21:25	69.9	69.9	69.9	61	55.8	0	3	292	0.00	29.592 
21:30	69.9	69.9	69.9	58	54.4	1	3	292	0.00	29.592 
21:35	69.9	69.9	69.9	57	54.0	0	2	292	0.00	29.592 
21:40	69.8	69.8	69.8	57	53.9	0	2	292	0.00	29.592 
21:45	69.6	69.6	69.6	56	53.2	0	3	292	0.00	29.596 
21:50	69.6	69.6	69.6	53	51.7	2	5	292	0.00	29.596 
21:55	69.6	69.6	69.6	52	51.2	1	2	292	0.00	29.596 
22:00	69.4	69.4	69.4	51	50.5	0	5	292	0.00	29.608 
22:05	69.1	69.1	69.1	51	50.2	0	2	292	0.00	29.608 
22:10	68.9	68.9	68.9	51	50.0	1	4	292	0.00	29.608 
22:15	68.8	68.8	68.8	51	49.9	1	3	292	0.00	29.607 
22:20	68.4	68.4	68.4	51	49.6	0	1	292	0.00	29.607 
22:25	68.3	68.3	68.3	51	49.5	0	1	292	0.00	29.607 
22:30	68.1	68.1	68.1	52	49.8	0	2	292	0.00	29.612 
22:35	67.8	67.8	67.8	52	49.5	0	3	292	0.00	29.612 
22:40	67.6	67.6	67.6	52	49.3	0	3	292	0.00	29.612 
22:45	67.3	67.3	67.3	53	49.6	0	2	292	0.00	29.622 
22:50	67.1	67.1	67.1	53	49.4	0	2	292	0.00	29.622 
22:55	66.8	66.8	66.8	53	49.1	0	2	292	0.00	29.622 
23:00	66.6	66.6	66.6	54	49.4	0	3	292	0.00	29.624 
23:05	66.4	66.4	66.4	54	49.2	0	1	292	0.00	29.624 
23:10	66.1	66.1	66.1	55	49.5	0	1	292	0.00	29.624 
23:15	66.0	66.0	66.0	55	49.4	0	1	292	0.00	29.626 
23:20	65.6	65.6	65.6	55	49.0	0	1	292	0.00	29.626 
23:25	65.5	65.5	65.5	55	48.9	0	1	292	0.00	29.626 
23:30	65.3	65.3	65.3	56	49.2	0	1	292	0.00	29.630 
23:35	65.2	65.2	65.2	56	49.1	0	1	292	0.00	29.630 
23:40	65.0	65.0	65.0	56	48.9	0	1	292	0.00	29.630 
23:45	64.7	64.7	64.7	57	49.1	0	1	292	0.00	29.632 
23:50	64.5	64.5	64.5	57	48.9	0	1	292	0.00	29.632 
23:55	64.3	64.3	64.3	58	49.2	0	0	---	0.00	29.632 

CoCoRaHS
IN-AL-39
A2 Web Hosting
Creative Commons License
GoDaddy
search engine by freefind advanced

loaded 2018-11-13 17:12:41 • last modified 2010-11-18 10:43:29
Privacy PolicyDisclaimer
• wx.awcolley.com is powered by PmWiki v.2002016 •
• all content (unless otherwise noted) © 2018 A W Colley